メインページ
METAR-TAF:

METAR-TAF

空港 :

イカルイト, ヌナブト準州, カナダ

イカルイト空港

緯度: 63-45N, 経度: 068-33W, 海抜: 34m

現時点の気象観測

当レポートは20分前の23:00(UTC)に作成
北西の風 20kt、最大25ktの突風を伴う
気温 1°C
湿度 75%
気圧 1021 hPa
視程: 48.3km
高度25000ftの千切れ雲あり

METAR: CYFB 272300Z 32020G25KT 30SM BKN250 01/M03 A3016 RMK CI7 SLP219

時間: 19:20 (23:20 UTC)

予報

当レポートは5時間39分前の17:41(UTC)に作成
予報は27日の 18時(UTC)から 28日の 18時(UTC)まで有効
北/北西の風 20kt
視程: 10km
高度25000ftの雲はほとんどない
28日の 02時(UTC)から 28日の 04時(UTC)まで徐々に
北/北西の風 15kt

TAF: CYFB 271741Z 2718/2818 33020KT P6SM FEW250 BECMG 2802/2804 33015KT RMK NXT FCST BY 280000Z

4,000以上の空港の気象観測と天気予報(METAR報とTAF報)

利用可能な観測所は地図上に黄色い丸と赤い丸で示す。

丸の上にカーソルを重ねると観測所名を参照できる。

次にクリックすると気象観測と天気予報を参照できる。

マップの切り替え:黒色「×」印の緑ボタンをクリックして拡大、「-」印の緑ボタンをクリックして縮小、緑色の三角印をクリックして隣りの地図に切り替え


METAR-TAF: